createdAt,value
2022-10-22T00:01:01.304Z,10.23
2022-10-22T00:03:29.088Z,12.40
2022-10-22T00:05:56.993Z,9.50
2022-10-22T00:08:24.817Z,10.15
2022-10-22T00:10:53.096Z,9.10
2022-10-22T00:13:21.417Z,9.88
2022-10-22T00:15:49.401Z,9.90
2022-10-22T00:18:17.189Z,10.70
2022-10-22T00:20:44.816Z,11.23
2022-10-22T00:23:12.752Z,9.45
2022-10-22T00:25:40.536Z,9.65
2022-10-22T00:28:09.345Z,10.57
2022-10-22T00:30:37.402Z,7.70
2022-10-22T00:33:05.098Z,11.30
2022-10-22T00:35:33.346Z,14.15
2022-10-22T00:38:01.069Z,11.30
2022-10-22T00:40:28.924Z,15.25
2022-10-22T00:42:56.675Z,10.88
2022-10-22T00:45:26.668Z,11.90
2022-10-22T00:48:02.213Z,9.35
2022-10-22T00:50:50.922Z,10.63
2022-10-22T00:53:25.378Z,12.70
2022-10-22T00:55:54.807Z,11.13
2022-10-22T00:58:27.161Z,10.57
2022-10-22T01:00:56.491Z,10.73
2022-10-22T01:03:24.398Z,9.93
2022-10-22T01:06:01.053Z,11.32
2022-10-22T01:08:46.657Z,8.68
2022-10-22T01:11:32.919Z,12.00
2022-10-22T01:14:09.479Z,14.02
2022-10-22T01:16:59.975Z,14.15
2022-10-22T01:19:57.466Z,9.68
2022-10-22T01:22:37.255Z,10.25
2022-10-22T01:25:36.101Z,11.68
2022-10-22T01:28:40.804Z,11.15
2022-10-22T01:31:13.300Z,10.57
2022-10-22T01:33:42.342Z,10.55
2022-10-22T01:36:12.134Z,9.32
2022-10-22T01:38:41.806Z,12.45
2022-10-22T01:41:11.112Z,8.70
2022-10-22T01:43:38.833Z,9.95
2022-10-22T01:46:07.939Z,11.20
2022-10-22T01:49:03.579Z,13.98
2022-10-22T01:51:54.719Z,13.68
2022-10-22T01:54:56.921Z,9.02
2022-10-22T01:57:43.267Z,10.50
2022-10-22T02:00:14.847Z,14.93
2022-10-22T02:03:05.976Z,10.25
2022-10-22T02:05:55.707Z,9.70
2022-10-22T02:08:31.166Z,10.95
2022-10-22T02:11:00.580Z,10.57
2022-10-22T02:13:36.555Z,8.88
2022-10-22T02:16:08.526Z,9.05
2022-10-22T02:18:40.648Z,9.70
2022-10-22T02:21:09.284Z,8.52
2022-10-22T02:23:37.469Z,13.48
2022-10-22T02:26:50.070Z,10.07
2022-10-22T02:29:30.636Z,16.30
2022-10-22T02:32:00.677Z,11.55
2022-10-22T02:34:31.997Z,15.18
2022-10-22T02:37:02.705Z,14.30
2022-10-22T02:39:32.073Z,11.20
2022-10-22T02:42:02.117Z,10.18
2022-10-22T02:44:29.885Z,12.15
2022-10-22T02:46:58.212Z,10.73
2022-10-22T02:49:26.013Z,11.38
2022-10-22T02:51:53.767Z,12.25
2022-10-22T02:54:21.517Z,12.93
2022-10-22T02:56:49.368Z,12.85
2022-10-22T02:59:17.079Z,11.77
2022-10-22T03:01:44.848Z,9.48
2022-10-22T03:04:12.664Z,11.00
2022-10-22T03:06:43.940Z,10.35
2022-10-22T03:09:11.936Z,9.68
2022-10-22T03:11:39.674Z,11.65
2022-10-22T03:14:07.414Z,9.73
2022-10-22T03:16:35.289Z,11.13
2022-10-22T03:19:03.382Z,11.20
2022-10-22T03:21:45.886Z,9.25
2022-10-22T03:24:18.292Z,10.43
2022-10-22T03:26:49.909Z,13.00
2022-10-22T03:29:18.089Z,11.00
2022-10-22T03:31:45.844Z,14.05
2022-10-22T03:34:13.687Z,11.52
2022-10-22T03:36:42.064Z,10.55
2022-10-22T03:39:13.959Z,11.48
2022-10-22T03:41:42.046Z,9.55
2022-10-22T03:44:10.122Z,14.07
2022-10-22T03:46:37.951Z,10.23
2022-10-22T03:49:05.669Z,13.00
2022-10-22T03:51:33.476Z,11.93
2022-10-22T03:54:01.178Z,12.60
2022-10-22T03:56:29.168Z,11.10
2022-10-22T03:58:58.381Z,12.60
2022-10-22T04:01:27.440Z,11.77
2022-10-22T04:03:56.005Z,11.57
2022-10-22T04:06:24.040Z,15.57
2022-10-22T04:08:51.831Z,12.43
2022-10-22T04:11:19.638Z,12.45
2022-10-22T04:13:47.475Z,12.10
2022-10-22T04:16:18.208Z,12.50
2022-10-22T04:18:47.287Z,13.10
2022-10-22T04:21:17.694Z,15.05
2022-10-22T04:23:50.503Z,12.57
2022-10-22T04:26:19.936Z,13.20
2022-10-22T04:28:49.690Z,12.25
2022-10-22T04:31:22.495Z,12.35
2022-10-22T04:33:55.027Z,14.20
2022-10-22T04:36:23.379Z,10.80
2022-10-22T04:38:57.121Z,14.15
2022-10-22T04:41:28.214Z,12.98
2022-10-22T04:43:57.161Z,15.93
2022-10-22T04:46:26.736Z,14.35
2022-10-22T04:48:54.525Z,15.35
2022-10-22T04:51:24.494Z,13.30
2022-10-22T04:53:52.907Z,11.32
2022-10-22T04:56:24.919Z,13.05
2022-10-22T04:59:04.490Z,14.73
2022-10-22T05:01:37.069Z,13.88
2022-10-22T05:04:09.321Z,15.25
2022-10-22T05:06:37.885Z,13.40
2022-10-22T05:09:08.289Z,12.23
2022-10-22T05:11:38.505Z,12.45
2022-10-22T05:14:08.415Z,12.52
2022-10-22T05:16:39.398Z,15.77
2022-10-22T05:19:08.189Z,11.65
2022-10-22T05:21:37.958Z,11.32
2022-10-22T05:24:06.631Z,11.93
2022-10-22T05:26:34.698Z,14.23
2022-10-22T05:29:02.592Z,11.95
2022-10-22T05:31:30.958Z,11.13
2022-10-22T05:33:59.755Z,13.98
2022-10-22T05:36:28.828Z,15.38
2022-10-22T05:38:57.928Z,14.75
2022-10-22T05:41:27.747Z,11.73
2022-10-22T05:43:57.741Z,14.20
2022-10-22T05:46:28.126Z,14.52
2022-10-22T05:49:02.395Z,10.05
2022-10-22T05:51:32.715Z,13.75
2022-10-22T05:54:02.865Z,15.30
2022-10-22T05:56:34.563Z,14.45
2022-10-22T06:01:33.279Z,14.80
2022-10-22T06:04:02.945Z,15.73
2022-10-22T06:06:33.096Z,10.68
2022-10-22T06:09:05.337Z,10.65
2022-10-22T06:11:35.167Z,11.18
2022-10-22T06:14:04.801Z,11.93
2022-10-22T06:16:33.250Z,11.55
2022-10-22T06:19:04.657Z,11.77
2022-10-22T06:21:32.921Z,11.70
2022-10-22T06:24:02.024Z,13.40
2022-10-22T06:26:30.644Z,12.25
2022-10-22T06:28:58.671Z,11.50
2022-10-22T06:31:27.570Z,12.15
2022-10-22T06:33:56.936Z,13.23
2022-10-22T06:36:25.244Z,13.30
2022-10-22T06:38:55.301Z,10.55
2022-10-22T06:41:27.036Z,7.97
2022-10-22T06:46:26.948Z,12.32
2022-10-22T06:48:59.456Z,10.68
2022-10-22T06:51:27.828Z,16.98
2022-10-22T06:53:56.593Z,11.02
2022-10-22T06:56:26.466Z,9.18
2022-10-22T06:58:56.578Z,10.85
2022-10-22T07:01:27.556Z,9.18
2022-10-22T07:03:55.524Z,8.95
2022-10-22T07:06:25.080Z,12.40
2022-10-22T07:08:54.473Z,10.50
2022-10-22T07:11:33.029Z,11.15
2022-10-22T07:14:01.304Z,10.55
2022-10-22T07:16:31.287Z,11.02
2022-10-22T07:19:01.567Z,9.98
2022-10-22T07:21:30.163Z,10.15
2022-10-22T07:23:59.255Z,14.02
2022-10-22T07:26:30.933Z,8.57
2022-10-22T07:29:00.488Z,12.10
2022-10-22T07:31:28.972Z,11.32
2022-10-22T07:33:57.651Z,6.68
2022-10-22T07:36:25.570Z,10.70
2022-10-22T07:38:56.390Z,8.38
2022-10-22T07:41:24.658Z,12.73
2022-10-22T07:43:52.686Z,9.15
2022-10-22T07:46:20.909Z,8.25
2022-10-22T07:48:48.820Z,7.25
2022-10-22T07:51:17.247Z,10.35
2022-10-22T07:53:45.165Z,10.88
2022-10-22T07:56:14.017Z,10.25
2022-10-22T07:58:41.799Z,8.32
2022-10-22T08:01:09.580Z,9.20
2022-10-22T08:03:37.572Z,8.95
2022-10-22T08:06:05.975Z,7.85
2022-10-22T08:08:34.950Z,9.10
2022-10-22T08:11:03.025Z,7.75
2022-10-22T08:13:31.514Z,8.50
2022-10-22T08:16:00.847Z,13.15
2022-10-22T08:18:29.651Z,12.00
2022-10-22T08:20:57.767Z,12.48
2022-10-22T08:23:27.758Z,9.30
2022-10-22T08:25:57.722Z,10.45
2022-10-22T08:28:25.991Z,10.40
2022-10-22T08:30:53.810Z,14.70
2022-10-22T08:33:22.063Z,8.63
2022-10-22T08:35:51.704Z,8.77
2022-10-22T08:38:20.077Z,10.23
2022-10-22T08:40:53.217Z,9.07
2022-10-22T08:43:42.874Z,10.80
2022-10-22T08:46:26.703Z,10.68
2022-10-22T08:48:58.158Z,11.90
2022-10-22T08:51:36.240Z,8.13
2022-10-22T08:54:30.799Z,7.25
2022-10-22T08:57:16.945Z,13.63
2022-10-22T09:00:05.210Z,6.72
2022-10-22T09:03:03.932Z,14.55
2022-10-22T09:05:37.697Z,7.25
2022-10-22T09:10:40.964Z,7.93
2022-10-22T09:13:14.375Z,7.82
2022-10-22T09:15:43.794Z,13.20
2022-10-22T09:18:28.979Z,11.93
2022-10-22T09:21:12.474Z,9.30
2022-10-22T09:24:03.410Z,12.27
2022-10-22T09:26:36.182Z,8.55
2022-10-22T09:29:05.235Z,9.07
2022-10-22T09:31:35.530Z,8.52
2022-10-22T09:34:07.657Z,12.15
2022-10-22T09:36:36.647Z,6.93
2022-10-22T09:39:05.314Z,9.07
2022-10-22T09:41:33.470Z,9.48
2022-10-22T09:44:01.413Z,7.90
2022-10-22T09:46:45.964Z,7.68
2022-10-22T09:49:18.135Z,12.57
2022-10-22T09:51:53.619Z,6.93
2022-10-22T09:54:32.199Z,9.45
2022-10-22T09:57:13.446Z,8.45
2022-10-22T09:59:43.368Z,7.57
2022-10-22T10:02:20.407Z,9.82
2022-10-22T10:05:03.938Z,12.55
2022-10-22T10:07:33.399Z,9.52
2022-10-22T10:10:01.312Z,10.60
2022-10-22T10:12:34.997Z,7.72
2022-10-22T10:15:28.984Z,9.93
2022-10-22T10:17:56.875Z,11.18
2022-10-22T10:20:24.635Z,5.82
2022-10-22T10:23:18.608Z,8.23
2022-10-22T10:25:54.252Z,7.20
2022-10-22T10:42:16.210Z,6.75
2022-10-22T10:45:07.395Z,9.90
2022-10-22T10:48:07.057Z,7.43
2022-10-22T10:50:52.808Z,6.47
2022-10-22T10:53:54.344Z,9.95
2022-10-22T10:56:28.746Z,8.38
2022-10-22T10:59:34.884Z,14.25
2022-10-22T11:02:21.144Z,9.27
2022-10-22T11:05:15.688Z,9.00
2022-10-22T11:07:53.451Z,11.00
2022-10-22T11:10:45.833Z,14.32
2022-10-22T11:13:36.956Z,9.20
2022-10-22T11:16:20.891Z,15.32
2022-10-22T11:18:53.298Z,7.20
2022-10-22T11:21:42.450Z,7.28
2022-10-22T11:24:27.899Z,8.82
2022-10-22T11:27:28.070Z,10.38
2022-10-22T11:30:13.010Z,12.40
2022-10-22T11:32:44.596Z,7.47
2022-10-22T11:35:21.149Z,9.48
2022-10-22T11:37:53.057Z,10.93
2022-10-22T11:40:31.942Z,10.98
2022-10-22T11:43:10.799Z,11.55
2022-10-22T11:45:43.220Z,12.75
2022-10-22T11:48:10.939Z,7.28
2022-10-22T11:50:45.144Z,12.70
2022-10-22T11:53:13.095Z,7.72
2022-10-22T11:55:48.216Z,8.80
2022-10-22T11:58:39.558Z,12.68
2022-10-22T12:01:10.284Z,8.23
2022-10-22T12:03:46.207Z,7.60
2022-10-22T12:06:15.814Z,8.77
2022-10-22T12:08:49.516Z,9.70
2022-10-22T12:11:47.813Z,4.95
2022-10-22T12:14:28.164Z,8.48
2022-10-22T12:17:10.223Z,7.97
2022-10-22T12:19:49.048Z,9.85
2022-10-22T12:22:36.213Z,6.13
2022-10-22T12:25:16.512Z,4.55
2022-10-22T12:27:44.472Z,4.60
2022-10-22T12:30:23.786Z,2.25
2022-10-22T12:32:54.877Z,3.85
2022-10-22T12:35:26.474Z,1.08
2022-10-22T12:38:13.706Z,1.13
2022-10-22T12:40:46.045Z,0.80
2022-10-22T12:43:24.077Z,0.75
2022-10-22T12:48:32.199Z,1.48
2022-10-22T12:51:01.874Z,2.80
2022-10-22T12:53:35.102Z,0.82
2022-10-22T12:56:07.947Z,0.57
2022-10-22T12:58:51.951Z,1.20
2022-10-22T13:01:20.006Z,4.15
2022-10-22T13:03:51.344Z,3.38
2022-10-22T13:06:18.996Z,2.05
2022-10-22T13:09:13.280Z,4.55
2022-10-22T13:11:48.994Z,2.45
2022-10-22T13:14:38.361Z,13.80
2022-10-22T13:17:14.968Z,2.38
2022-10-22T13:19:50.747Z,2.03
2022-10-22T13:22:32.429Z,1.48
2022-10-22T13:25:04.943Z,2.63
2022-10-22T13:27:32.731Z,1.98
2022-10-22T13:30:03.153Z,2.92
2022-10-22T13:32:36.892Z,3.40
2022-10-22T13:35:05.047Z,2.70
2022-10-22T13:37:34.414Z,1.90
2022-10-22T13:40:02.265Z,3.55
2022-10-22T13:42:29.993Z,2.13
2022-10-22T13:44:57.672Z,2.20
2022-10-22T13:47:29.277Z,5.93
2022-10-22T13:50:00.909Z,3.25
2022-10-22T13:52:38.703Z,2.17
2022-10-22T13:55:25.860Z,2.63
2022-10-22T13:58:00.051Z,2.70
2022-10-22T14:00:29.995Z,3.67
2022-10-22T14:02:59.231Z,3.88
2022-10-22T14:05:27.531Z,2.00
2022-10-22T14:07:55.408Z,2.97
2022-10-22T14:10:24.949Z,2.78
2022-10-22T14:12:53.762Z,4.15
2022-10-22T14:15:29.461Z,4.55
2022-10-22T14:17:59.163Z,2.72
2022-10-22T14:20:29.374Z,2.42
2022-10-22T14:23:05.404Z,3.70
2022-10-22T14:25:33.182Z,6.05
2022-10-22T14:28:01.926Z,3.05
2022-10-22T14:30:30.434Z,3.65
2022-10-22T14:32:58.156Z,5.10
2022-10-22T14:35:26.030Z,3.85
2022-10-22T14:37:54.144Z,5.47
2022-10-22T14:40:21.920Z,4.35
2022-10-22T14:42:49.811Z,7.95
2022-10-22T14:45:26.019Z,2.78
2022-10-22T14:47:57.601Z,3.20
2022-10-22T14:50:25.455Z,3.20
2022-10-22T14:52:53.184Z,3.78
2022-10-22T14:55:21.325Z,2.42
2022-10-22T14:57:49.048Z,3.42
2022-10-22T15:00:18.742Z,6.47
2022-10-22T15:02:47.471Z,2.33
2022-10-22T15:05:15.851Z,4.93
2022-10-22T15:07:44.973Z,3.72
2022-10-22T15:10:12.757Z,4.55
2022-10-22T15:12:40.633Z,3.70
2022-10-22T15:15:19.365Z,6.57
2022-10-22T15:17:50.238Z,3.50
2022-10-22T15:20:18.051Z,2.85
2022-10-22T15:22:45.819Z,9.98
2022-10-22T15:25:14.249Z,6.65
2022-10-22T15:27:41.999Z,2.42
2022-10-22T15:30:09.930Z,2.95
2022-10-22T15:32:37.630Z,4.63
2022-10-22T15:35:06.056Z,2.95
2022-10-22T15:37:33.985Z,3.13
2022-10-22T15:40:03.857Z,2.05
2022-10-22T15:42:31.628Z,3.80
2022-10-22T15:44:59.829Z,2.72
2022-10-22T15:47:29.755Z,3.72
2022-10-22T15:49:57.691Z,4.07
2022-10-22T15:52:25.608Z,3.30
2022-10-22T15:54:53.424Z,20.75
2022-10-22T15:57:21.259Z,12.40
2022-10-22T15:59:50.251Z,2.70
2022-10-22T16:02:18.994Z,7.20
2022-10-22T16:04:46.783Z,5.60
2022-10-22T16:07:15.826Z,3.80
2022-10-22T16:09:43.501Z,5.88
2022-10-22T16:12:12.259Z,2.60
2022-10-22T16:14:42.383Z,6.07
2022-10-22T16:17:10.219Z,3.38
2022-10-22T16:19:37.980Z,3.58
2022-10-22T16:22:05.702Z,4.93
2022-10-22T16:24:33.562Z,5.22
2022-10-22T16:27:01.451Z,1.33
2022-10-22T16:29:29.175Z,2.00
2022-10-22T16:31:56.936Z,2.63
2022-10-22T16:34:27.320Z,1.90
2022-10-22T16:36:57.039Z,2.78
2022-10-22T16:39:25.022Z,4.63
2022-10-22T16:41:52.735Z,5.07
2022-10-22T16:44:21.171Z,1.75
2022-10-22T16:46:53.092Z,5.68
2022-10-22T16:49:21.631Z,3.67
2022-10-22T16:51:49.866Z,3.22
2022-10-22T16:54:18.633Z,2.75
2022-10-22T16:56:46.529Z,2.90
2022-10-22T16:59:14.389Z,5.55
2022-10-22T17:01:42.241Z,4.80
2022-10-22T17:04:10.250Z,3.10
2022-10-22T17:06:38.061Z,6.10
2022-10-22T17:09:06.015Z,6.80
2022-10-22T17:11:37.028Z,6.25
2022-10-22T17:14:07.096Z,5.13
2022-10-22T17:16:34.844Z,7.65
2022-10-22T17:19:05.529Z,3.20
2022-10-22T17:21:34.182Z,4.03
2022-10-22T17:24:02.072Z,3.22
2022-10-22T17:26:33.280Z,3.92
2022-10-22T17:29:01.079Z,4.03
2022-10-22T17:31:38.386Z,5.72
2022-10-22T17:34:08.610Z,5.60
2022-10-22T17:36:37.959Z,5.63
2022-10-22T17:39:07.742Z,4.28
2022-10-22T17:41:37.140Z,2.97
2022-10-22T17:44:09.140Z,3.15
2022-10-22T17:46:38.596Z,4.93
2022-10-22T17:49:13.468Z,3.33
2022-10-22T17:51:41.402Z,3.53
2022-10-22T17:54:10.145Z,7.38
2022-10-22T17:56:40.425Z,11.13
2022-10-22T17:59:09.850Z,5.70
2022-10-22T18:01:40.531Z,9.95
2022-10-22T18:04:08.955Z,10.05
2022-10-22T18:06:37.738Z,9.35
2022-10-22T18:09:11.473Z,14.70
2022-10-22T18:11:41.278Z,11.02
2022-10-22T18:14:09.020Z,6.10
2022-10-22T18:16:36.880Z,17.83
2022-10-22T18:19:05.520Z,18.48
2022-10-22T18:21:33.287Z,10.90
2022-10-22T18:24:01.006Z,6.60
2022-10-22T18:26:28.945Z,6.78
2022-10-22T18:28:59.819Z,4.63
2022-10-22T18:31:28.588Z,5.45
2022-10-22T18:33:57.491Z,7.45
2022-10-22T18:36:26.973Z,6.40
2022-10-22T18:39:00.405Z,4.40
2022-10-22T18:41:29.878Z,5.60
2022-10-22T18:43:59.802Z,4.85
2022-10-22T18:46:28.952Z,7.07
2022-10-22T18:48:57.690Z,6.75
2022-10-22T18:51:30.699Z,5.43
2022-10-22T18:54:05.650Z,5.57
2022-10-22T18:56:46.033Z,5.57
2022-10-22T18:59:18.240Z,5.78
2022-10-22T19:01:46.183Z,5.45
2022-10-22T19:04:14.440Z,6.43
2022-10-22T19:06:45.311Z,7.30
2022-10-22T19:09:15.625Z,7.45
2022-10-22T19:11:46.618Z,7.40
2022-10-22T19:14:19.637Z,6.70
2022-10-22T19:16:47.447Z,5.68
2022-10-22T19:19:18.768Z,5.28
2022-10-22T19:21:47.139Z,7.80
2022-10-22T19:24:17.139Z,6.15
2022-10-22T19:26:45.951Z,9.20
2022-10-22T19:29:18.824Z,9.18
2022-10-22T19:31:47.662Z,6.25
2022-10-22T19:34:15.466Z,6.00
2022-10-22T19:36:43.347Z,6.30
2022-10-22T19:39:11.260Z,5.95
2022-10-22T19:41:39.118Z,6.97
2022-10-22T19:44:06.938Z,5.88
2022-10-22T19:46:34.727Z,7.53
2022-10-22T19:49:03.791Z,6.30
2022-10-22T19:51:33.995Z,6.10
2022-10-22T19:54:09.243Z,6.57
2022-10-22T19:56:37.877Z,8.27
2022-10-22T19:59:06.152Z,8.10
2022-10-22T20:01:34.035Z,7.55
2022-10-22T20:04:01.969Z,7.60
2022-10-22T20:06:30.815Z,5.05
2022-10-22T20:08:59.015Z,7.03
2022-10-22T20:11:29.542Z,9.43
2022-10-22T20:13:58.087Z,9.07
2022-10-22T20:16:30.054Z,5.93
2022-10-22T20:19:02.916Z,7.15
2022-10-22T20:21:31.120Z,4.72
2022-10-22T20:23:59.696Z,4.18
2022-10-22T20:26:28.778Z,5.78
2022-10-22T20:28:57.086Z,8.13
2022-10-22T20:31:27.205Z,8.35
2022-10-22T20:33:59.613Z,5.95
2022-10-22T20:36:29.320Z,7.82
2022-10-22T20:39:05.503Z,5.63
2022-10-22T20:41:38.030Z,6.28
2022-10-22T20:44:06.273Z,8.25
2022-10-22T20:46:34.828Z,9.75
2022-10-22T20:49:06.274Z,6.18
2022-10-22T20:51:36.395Z,9.13
2022-10-22T20:54:05.616Z,6.13
2022-10-22T20:56:34.542Z,7.55
2022-10-22T20:59:05.953Z,5.47
2022-10-22T21:01:37.348Z,7.43
2022-10-22T21:04:06.406Z,5.70
2022-10-22T21:06:41.470Z,10.98
2022-10-22T21:09:11.791Z,6.45
2022-10-22T21:11:41.284Z,5.43
2022-10-22T21:14:11.104Z,5.57
2022-10-22T21:16:43.759Z,8.65
2022-10-22T21:19:11.863Z,11.13
2022-10-22T21:21:43.060Z,9.60
2022-10-22T21:24:11.264Z,7.45
2022-10-22T21:26:40.955Z,10.00
2022-10-22T21:29:12.336Z,6.55
2022-10-22T21:31:40.638Z,9.10
2022-10-22T21:34:08.541Z,5.68
2022-10-22T21:36:36.321Z,8.40
2022-10-22T21:39:04.288Z,7.30
2022-10-22T21:41:32.011Z,7.88
2022-10-22T21:43:59.866Z,6.80
2022-10-22T21:46:28.388Z,12.05
2022-10-22T21:49:00.001Z,13.75
2022-10-22T21:51:29.536Z,8.05
2022-10-22T21:53:57.913Z,14.68
2022-10-22T21:56:28.711Z,8.68
2022-10-22T21:58:56.525Z,11.40
2022-10-22T22:01:24.563Z,6.40
2022-10-22T22:03:52.701Z,7.85
2022-10-22T22:06:23.446Z,10.15
2022-10-22T22:08:55.177Z,6.57
2022-10-22T22:11:26.572Z,9.25
2022-10-22T22:13:55.622Z,6.45
2022-10-22T22:16:28.446Z,9.85
2022-10-22T22:19:05.636Z,4.73
2022-10-22T22:21:34.848Z,4.55
2022-10-22T22:24:02.621Z,7.45
2022-10-22T22:26:30.760Z,6.40
2022-10-22T22:28:59.843Z,6.45
2022-10-22T22:31:33.267Z,8.38
2022-10-22T22:34:03.815Z,6.28
2022-10-22T22:36:40.245Z,5.75
2022-10-22T22:39:11.721Z,4.50
2022-10-22T22:41:39.962Z,6.10
2022-10-22T22:44:07.779Z,6.15
2022-10-22T22:46:36.393Z,9.25
2022-10-22T22:49:04.851Z,5.35
2022-10-22T22:51:32.894Z,9.13
2022-10-22T22:54:01.703Z,8.88
2022-10-22T22:56:31.861Z,4.38
2022-10-22T22:58:59.863Z,6.82
2022-10-22T23:01:30.705Z,9.93
2022-10-22T23:04:01.412Z,8.57
2022-10-22T23:06:33.260Z,6.63
2022-10-22T23:09:01.271Z,3.72
2022-10-22T23:11:29.146Z,6.47
2022-10-22T23:13:59.904Z,5.30
2022-10-22T23:16:30.477Z,5.05
2022-10-22T23:18:59.011Z,4.93
2022-10-22T23:21:32.669Z,4.30
2022-10-22T23:24:03.116Z,4.63
2022-10-22T23:26:37.227Z,4.43
2022-10-22T23:31:34.289Z,4.00
2022-10-22T23:34:02.365Z,2.92
2022-10-22T23:36:30.115Z,4.55
2022-10-22T23:38:57.886Z,5.05
2022-10-22T23:41:25.685Z,3.33
2022-10-22T23:43:53.435Z,3.53
2022-10-22T23:46:21.171Z,3.03
2022-10-22T23:48:49.347Z,3.80
2022-10-22T23:51:17.541Z,3.88
2022-10-22T23:53:46.174Z,4.50
2022-10-22T23:56:17.743Z,4.80
2022-10-22T23:58:45.807Z,3.03
